Time;durP1;ratioP1;P1;durP2;ratioP2;P2;SDS_P1;SDS_P2;PMS_P1;PMS_P2;Temp;Humidity;BMP_temperature;BMP_pressure;BME280_temperature;BME280_humidity;BME280_pressure;Samples;Min_cycle;Max_cycle;Signal;HPM_P1;HPM_P2
2021/09/26 17:44:28;;;;;;;13.52;7.00;;;22.20;99.90;;;;;;5020767;23;20204;-67
2021/09/26 17:46:55;;;;;;;10.10;6.13;;;22.30;99.90;;;;;;4998792;28;20232;-69
2021/09/26 17:49:22;;;;;;;11.93;6.65;;;22.20;99.90;;;;;;5004955;28;20518;-69
2021/09/26 17:51:49;;;;;;;13.07;7.07;;;22.00;99.90;;;;;;5001449;28;20388;-70
2021/09/26 17:54:16;;;;;;;10.13;6.18;;;21.90;99.90;;;;;;5005335;28;20054;-73
2021/09/26 17:56:43;;;;;;;10.40;5.63;;;21.80;99.90;;;;;;5000985;28;20135;-71
2021/09/26 17:59:10;;;;;;;14.05;6.43;;;21.70;99.90;;;;;;4996936;28;20050;-71
2021/09/26 18:01:38;;;;;;;11.70;6.07;;;21.50;99.90;;;;;;5001375;28;20049;-71
2021/09/26 18:04:06;;;;;;;15.13;6.93;;;21.50;99.90;;;;;;5003504;28;20847;-71
2021/09/26 18:06:33;;;;;;;11.88;6.07;;;21.50;99.90;;;;;;4999892;28;20057;-71
2021/09/26 18:09:00;;;;;;;11.18;6.40;;;21.50;99.90;;;;;;5001443;28;20122;-71
2021/09/26 18:11:27;;;;;;;14.65;6.03;;;21.50;99.90;;;;;;4999470;28;20045;-71
2021/09/26 18:13:55;;;;;;;12.52;6.05;;;21.50;99.90;;;;;;4997775;28;20045;-71
2021/09/26 18:16:24;;;;;;;13.35;6.82;;;21.50;99.90;;;;;;4997907;28;20534;-71
2021/09/26 18:18:53;;;;;;;12.80;6.63;;;21.40;99.90;;;;;;5002706;28;20086;-71
2021/09/26 18:21:21;;;;;;;13.68;6.28;;;21.30;99.90;;;;;;5001832;28;20137;-71
2021/09/26 18:23:51;;;;;;;11.68;6.95;;;21.40;99.90;;;;;;5004325;28;20058;-71
2021/09/26 18:26:21;;;;;;;12.85;6.35;;;21.40;99.90;;;;;;5003186;28;20088;-72
2021/09/26 18:28:48;;;;;;;12.30;6.63;;;21.40;99.90;;;;;;5002081;28;20053;-71
2021/09/26 18:31:17;;;;;;;12.57;6.82;;;21.50;99.90;;;;;;5004705;28;20086;-71
2021/09/26 18:33:44;;;;;;;13.90;6.55;;;21.40;99.90;;;;;;5007749;28;20053;-71
2021/09/26 18:36:16;;;;;;;14.93;6.75;;;21.30;99.90;;;;;;5003639;28;20517;-71
2021/09/26 18:38:45;;;;;;;12.15;6.40;;;21.30;99.90;;;;;;5004051;28;20049;-71
2021/09/26 18:41:15;;;;;;;15.18;6.60;;;21.20;99.90;;;;;;5004541;28;20049;-71
2021/09/26 18:43:43;;;;;;;14.75;7.68;;;21.20;99.90;;;;;;5002665;28;20077;-71
2021/09/26 18:46:10;;;;;;;10.85;6.40;;;21.30;99.90;;;;;;5002120;28;20097;-71
2021/09/26 18:48:39;;;;;;;14.65;7.40;;;21.30;99.90;;;;;;5003303;28;20674;-71
2021/09/26 18:51:09;;;;;;;10.40;5.90;;;21.30;99.90;;;;;;5003030;28;20093;-71
2021/09/26 18:53:38;;;;;;;11.77;6.70;;;21.30;99.90;;;;;;5002198;28;20084;-71
2021/09/26 18:56:06;;;;;;;12.73;7.30;;;21.40;99.90;;;;;;5003579;28;20049;-71
2021/09/26 18:58:34;;;;;;;15.82;7.15;;;21.30;99.90;;;;;;5004540;28;20159;-71
2021/09/26 19:01:02;;;;;;;14.10;6.57;;;21.20;99.90;;;;;;5002671;28;20053;-71
2021/09/26 19:03:30;;;;;;;11.95;7.25;;;21.20;99.90;;;;;;5004486;28;20212;-71
2021/09/26 19:05:59;;;;;;;13.80;7.05;;;21.30;99.90;;;;;;4999689;28;20053;-71
2021/09/26 19:08:32;;;;;;;15.55;7.22;;;21.30;99.90;;;;;;5000212;28;20054;-71
2021/09/26 19:11:01;;;;;;;13.98;6.78;;;21.40;99.90;;;;;;5001143;28;20069;-71
2021/09/26 19:13:28;;;;;;;12.65;7.68;;;21.20;99.90;;;;;;4998765;28;20081;-71
2021/09/26 19:15:59;;;;;;;9.82;7.32;;;21.00;99.90;;;;;;5000378;28;20054;-71
2021/09/26 19:18:27;;;;;;;11.95;8.07;;;21.20;99.90;;;;;;5001252;28;20141;-72
2021/09/26 19:20:54;;;;;;;12.38;7.93;;;21.10;99.90;;;;;;5001936;28;20463;-71
2021/09/26 19:23:24;;;;;;;12.60;8.25;;;21.00;99.90;;;;;;5001500;28;20474;-71
2021/09/26 19:25:52;;;;;;;14.32;8.20;;;21.20;99.90;;;;;;5000224;28;20084;-71
2021/09/26 19:28:27;;;;;;;12.93;8.20;;;21.10;99.90;;;;;;5000609;28;20057;-71
2021/09/26 19:30:54;;;;;;;18.58;8.75;;;21.10;99.90;;;;;;5001626;28;20603;-71
2021/09/26 19:33:22;;;;;;;15.40;8.10;;;21.20;99.90;;;;;;5003589;28;20502;-71
2021/09/26 19:35:49;;;;;;;12.20;7.93;;;21.30;99.90;;;;;;4998642;28;20085;-71
2021/09/26 19:38:16;;;;;;;14.55;7.70;;;21.30;99.90;;;;;;5001723;28;20050;-71
2021/09/26 19:40:44;;;;;;;12.93;7.55;;;21.30;99.90;;;;;;5002708;28;20187;-71
2021/09/26 19:43:11;;;;;;;13.35;8.25;;;21.20;99.90;;;;;;4997275;28;20055;-71
2021/09/26 19:45:39;;;;;;;13.10;7.78;;;21.00;99.90;;;;;;4997760;28;20140;-72
2021/09/26 19:48:06;;;;;;;11.77;7.40;;;21.00;99.90;;;;;;4997561;28;20508;-71
2021/09/26 19:50:35;;;;;;;15.10;7.50;;;21.00;99.90;;;;;;4999526;28;20053;-71
2021/09/26 19:53:03;;;;;;;13.98;8.27;;;20.80;99.90;;;;;;4997837;28;20064;-71
2021/09/26 19:55:30;;;;;;;16.98;8.32;;;20.70;99.90;;;;;;4999881;28;20080;-72
2021/09/26 19:57:57;;;;;;;14.20;9.27;;;20.60;99.90;;;;;;5000349;28;20065;-71
2021/09/26 20:00:25;;;;;;;12.73;7.82;;;20.50;99.90;;;;;;5001048;28;20057;-71
2021/09/26 20:02:56;;;;;;;16.13;8.68;;;20.40;99.90;;;;;;4998623;28;20570;-71
2021/09/26 20:05:25;;;;;;;16.00;9.55;;;20.40;99.90;;;;;;5000319;28;20053;-71
2021/09/26 20:07:53;;;;;;;24.05;10.80;;;20.40;99.90;;;;;;4997335;28;20123;-71
2021/09/26 20:10:20;;;;;;;23.55;11.50;;;20.20;99.90;;;;;;4984868;28;20061;-71
2021/09/26 20:12:48;;;;;;;26.48;12.05;;;19.90;99.90;;;;;;4994356;28;20570;-70
2021/09/26 20:15:18;;;;;;;19.67;10.20;;;19.70;99.90;;;;;;4998532;28;20053;-70
2021/09/26 20:17:45;;;;;;;18.80;9.48;;;19.50;99.90;;;;;;4999929;28;20096;-70
2021/09/26 20:20:14;;;;;;;20.60;10.73;;;19.50;99.90;;;;;;5001378;28;20053;-70
2021/09/26 20:22:43;;;;;;;19.13;10.38;;;19.30;99.90;;;;;;4997327;28;20053;-70
2021/09/26 20:25:13;;;;;;;18.35;10.23;;;19.30;99.90;;;;;;4999695;28;20151;-70
2021/09/26 20:27:41;;;;;;;17.55;10.55;;;19.20;99.90;;;;;;4996877;28;20081;-70
2021/09/26 20:30:10;;;;;;;16.73;10.77;;;19.20;99.90;;;;;;4998049;28;20058;-70
2021/09/26 20:32:37;;;;;;;16.60;10.88;;;19.20;99.90;;;;;;4995946;28;20160;-70
2021/09/26 20:35:06;;;;;;;19.70;11.43;;;19.20;99.90;;;;;;5001188;28;20516;-70
2021/09/26 20:37:35;;;;;;;18.33;12.43;;;19.00;99.90;;;;;;4992822;28;20160;-71
2021/09/26 20:40:03;;;;;;;24.23;12.98;;;18.80;99.90;;;;;;4994429;28;20061;-70
2021/09/26 20:42:30;;;;;;;28.00;14.15;;;22.70;99.90;;;;;;5000259;28;20085;-69
2021/09/26 20:44:57;;;;;;;27.48;15.23;;;21.60;99.90;;;;;;5000217;28;20138;-73
2021/09/26 20:47:27;;;;;;;35.05;17.60;;;21.60;99.90;;;;;;4998036;28;20053;-73
2021/09/26 20:49:54;;;;;;;38.13;18.10;;;21.60;99.90;;;;;;4996018;28;20602;-73
2021/09/26 20:52:21;;;;;;;35.30;18.67;;;21.50;99.90;;;;;;4995537;28;20089;-72
2021/09/26 20:54:50;;;;;;;42.42;19.48;;;21.60;99.90;;;;;;5002721;28;20050;-73
2021/09/26 20:57:17;;;;;;;44.65;21.17;;;21.70;99.90;;;;;;5005586;28;20138;-73
2021/09/26 20:59:44;;;;;;;35.38;21.65;;;21.90;99.90;;;;;;5001587;28;20147;-73
2021/09/26 21:02:11;;;;;;;44.10;23.63;;;22.80;99.90;;;;;;4998554;28;20149;-74
2021/09/26 21:04:38;;;;;;;42.97;25.33;;;23.60;99.90;;;;;;5002220;28;20144;-73
2021/09/26 21:07:05;;;;;;;63.05;23.98;;;23.70;99.90;;;;;;4995555;28;20054;-73
2021/09/26 21:09:32;;;;;;;46.90;27.48;;;23.80;99.90;;;;;;5000246;28;20426;-73
2021/09/26 21:12:00;;;;;;;41.08;25.23;;;24.00;99.90;;;;;;4998322;28;20139;-74
2021/09/26 21:14:31;;;;;;;47.45;27.88;;;23.90;99.90;;;;;;4989765;28;21463;-73
2021/09/26 21:16:59;;;;;;;51.70;27.70;;;23.80;99.90;;;;;;4995852;28;20058;-74
2021/09/26 21:19:27;;;;;;;54.10;28.88;;;23.70;99.90;;;;;;4991280;28;20105;-73
2021/09/26 21:21:55;;;;;;;53.20;29.67;;;23.80;99.90;;;;;;4990478;28;20096;-73
2021/09/26 21:24:22;;;;;;;56.40;30.58;;;23.80;99.90;;;;;;4997299;28;20571;-73
2021/09/26 21:26:49;;;;;;;64.93;32.35;;;23.60;99.90;;;;;;4997669;28;20064;-73
2021/09/26 21:29:17;;;;;;;53.50;30.08;;;23.60;99.90;;;;;;4998682;28;20133;-73
2021/09/26 21:31:44;;;;;;;68.10;33.08;;;23.60;99.90;;;;;;4999884;28;20569;-73
2021/09/26 21:34:12;;;;;;;59.05;32.38;;;23.50;99.90;;;;;;4997873;28;20054;-74
2021/09/26 21:36:39;;;;;;;64.47;33.55;;;23.40;99.90;;;;;;4995195;28;20042;-73
2021/09/26 21:39:06;;;;;;;54.13;30.40;;;23.50;99.90;;;;;;5003536;28;20549;-73
2021/09/26 21:41:34;;;;;;;52.88;28.92;;;23.30;99.90;;;;;;5001371;28;20101;-74
2021/09/26 21:44:01;;;;;;;57.97;31.52;;;23.20;99.90;;;;;;5003921;28;20399;-75
2021/09/26 21:46:30;;;;;;;56.67;31.63;;;23.20;99.90;;;;;;5001982;28;20715;-74
2021/09/26 21:48:57;;;;;;;72.47;34.70;;;23.00;99.90;;;;;;5003056;28;20085;-74
2021/09/26 21:51:24;;;;;;;64.70;32.85;;;23.20;99.90;;;;;;5001189;28;20093;-73
2021/09/26 21:53:51;;;;;;;55.90;29.92;;;23.60;99.90;;;;;;5001556;28;20050;-72
2021/09/26 21:56:18;;;;;;;50.90;28.48;;;23.80;99.90;;;;;;5002860;28;20356;-72
2021/09/26 21:58:45;;;;;;;50.17;29.85;;;23.60;99.90;;;;;;5003898;28;20050;-72
2021/09/26 22:01:13;;;;;;;49.85;29.15;;;23.50;99.90;;;;;;5002334;28;20131;-73
2021/09/26 22:03:45;;;;;;;46.95;27.67;;;23.30;99.90;;;;;;5003970;28;20499;-72
2021/09/26 22:06:12;;;;;;;47.35;28.30;;;23.00;99.90;;;;;;4997704;28;20046;-73
2021/09/26 22:08:39;;;;;;;55.97;30.90;;;22.80;99.90;;;;;;5000333;28;20576;-74
2021/09/26 22:11:10;;;;;;;53.13;29.75;;;22.70;99.90;;;;;;5001933;28;20084;-73
2021/09/26 22:13:39;;;;;;;51.97;29.15;;;22.70;99.90;;;;;;5002668;28;20105;-74
2021/09/26 22:16:07;;;;;;;52.95;29.90;;;22.60;99.90;;;;;;5001221;28;20053;-73
2021/09/26 22:18:34;;;;;;;52.58;29.10;;;22.60;99.90;;;;;;5001808;28;20049;-74
2021/09/26 22:21:06;;;;;;;60.47;30.70;;;22.40;99.90;;;;;;5002798;28;20463;-73
2021/09/26 22:23:36;;;;;;;64.57;32.17;;;22.30;99.90;;;;;;5000865;28;20049;-74
2021/09/26 22:26:04;;;;;;;51.85;27.83;;;22.10;99.90;;;;;;5002097;28;20073;-74
2021/09/26 22:28:31;;;;;;;47.35;27.95;;;22.00;99.90;;;;;;5005501;28;20054;-74
2021/09/26 22:30:58;;;;;;;49.88;28.73;;;22.00;99.90;;;;;;5001859;28;20160;-74
2021/09/26 22:33:26;;;;;;;44.85;26.35;;;21.90;99.90;;;;;;5004042;28;20514;-74
2021/09/26 22:35:55;;;;;;;49.75;28.92;;;21.90;99.90;;;;;;5003811;28;20147;-74
2021/09/26 22:38:24;;;;;;;52.75;29.98;;;21.80;99.90;;;;;;5003547;28;20111;-74
2021/09/26 22:40:51;;;;;;;52.53;30.10;;;21.70;99.90;;;;;;5003571;28;20587;-74
2021/09/26 22:43:22;;;;;;;48.28;27.77;;;21.70;99.90;;;;;;5001746;28;20061;-74
2021/09/26 22:45:49;;;;;;;57.05;29.95;;;21.50;99.90;;;;;;5003375;28;20065;-74
2021/09/26 22:48:17;;;;;;;52.08;29.05;;;21.80;99.90;;;;;;5000305;28;20082;-74
2021/09/26 22:50:46;;;;;;;44.67;27.23;;;21.80;99.90;;;;;;5002161;28;20510;-74
2021/09/26 22:53:14;;;;;;;51.60;29.38;;;21.70;99.90;;;;;;4998173;28;20054;-74
2021/09/26 22:55:45;;;;;;;47.22;28.10;;;21.70;99.90;;;;;;5001621;28;20049;-74
2021/09/26 22:58:14;;;;;;;47.90;28.35;;;21.60;99.90;;;;;;5002481;28;20057;-73
2021/09/26 23:00:47;;;;;;;45.17;27.48;;;21.30;99.90;;;;;;4999842;28;20104;-75
2021/09/26 23:03:17;;;;;;;46.03;28.23;;;21.10;99.90;;;;;;5002126;28;20653;-75
2021/09/26 23:05:45;;;;;;;44.95;26.52;;;21.10;99.90;;;;;;5000861;28;20085;-75
2021/09/26 23:08:12;;;;;;;52.03;28.20;;;20.90;99.90;;;;;;5000480;28;20419;-75
2021/09/26 23:10:40;;;;;;;49.90;26.27;;;20.90;99.90;;;;;;5002124;28;20046;-73
2021/09/26 23:13:10;;;;;;;44.05;28.00;;;21.30;99.90;;;;;;5000904;28;20091;-73
2021/09/26 23:15:37;;;;;;;48.60;27.88;;;21.30;99.90;;;;;;4999892;28;20141;-73
2021/09/26 23:18:05;;;;;;;46.47;27.73;;;21.30;99.90;;;;;;4999019;28;20077;-73
2021/09/26 23:20:36;;;;;;;48.08;28.25;;;21.30;99.90;;;;;;5000740;28;20104;-73
2021/09/26 23:23:03;;;;;;;43.20;25.75;;;21.30;99.90;;;;;;5001278;28;20050;-73
2021/09/26 23:25:33;;;;;;;48.35;27.38;;;21.40;99.90;;;;;;5000910;28;20092;-73
2021/09/26 23:28:00;;;;;;;48.80;27.83;;;21.30;99.90;;;;;;5000807;28;20572;-74
2021/09/26 23:30:29;;;;;;;43.83;27.10;;;21.30;99.90;;;;;;5002325;28;20049;-73
2021/09/26 23:32:57;;;;;;;43.90;26.58;;;21.30;99.90;;;;;;5000338;28;20084;-74
2021/09/26 23:35:27;;;;;;;41.70;24.85;;;21.30;99.90;;;;;;4998260;28;20214;-73
2021/09/26 23:37:55;;;;;;;50.75;29.50;;;21.20;99.90;;;;;;5000122;28;20087;-74
2021/09/26 23:40:29;;;;;;;50.45;28.58;;;21.20;99.90;;;;;;4999328;28;20089;-73
2021/09/26 23:42:56;;;;;;;47.55;27.83;;;21.10;99.90;;;;;;5002059;28;20063;-74
2021/09/26 23:45:24;;;;;;;46.45;27.48;;;21.20;99.90;;;;;;4999807;28;20574;-73
2021/09/26 23:47:52;;;;;;;49.17;29.27;;;21.00;99.90;;;;;;5002182;28;20081;-73
2021/09/26 23:50:22;;;;;;;43.30;25.73;;;20.90;99.90;;;;;;5000311;28;20138;-74
2021/09/26 23:52:50;;;;;;;42.35;26.85;;;20.80;99.90;;;;;;4999979;28;20057;-73
2021/09/26 23:55:19;;;;;;;42.47;25.92;;;20.80;99.90;;;;;;4995430;28;20121;-74
2021/09/26 23:57:46;;;;;;;43.35;26.05;;;20.70;99.90;;;;;;5000833;28;20108;-74
